Time;durP1;ratioP1;P1;durP2;ratioP2;P2;SDS_P1;SDS_P2;PMS_P1;PMS_P2;Temp;Humidity;BMP_temperature;BMP_pressure;BME280_temperature;BME280_humidity;BME280_pressure;Samples;Min_cycle;Max_cycle;Signal;HPM_P1;HPM_P2
2022/12/17 13:08:01;;;;;;;30.57;13.07;;;;;;;16.60;67.52;99105.88;5927631;24;20175;-91
2022/12/17 13:10:32;;;;;;;32.27;13.70;;;;;;;16.21;69.14;99115.03;6015710;23;20561;-90
2022/12/17 13:13:10;;;;;;;29.53;10.63;;;;;;;15.69;70.69;99118.09;6069436;23;20145;-90
2022/12/17 13:15:43;;;;;;;27.03;12.47;;;;;;;15.24;73.18;99110.84;6069482;23;20144;-90
2022/12/17 13:22:40;;;;;;;29.00;11.53;;;;;;;15.50;71.53;99130.09;5918135;24;20170;-91
2022/12/17 13:25:18;;;;;;;34.40;12.57;;;;;;;15.35;72.34;99124.13;5987713;23;20165;-91
2022/12/17 13:28:01;;;;;;;29.87;13.27;;;;;;;15.21;73.06;99119.81;6044352;23;20159;-92
2022/12/17 13:30:34;;;;;;;23.53;10.43;;;;;;;15.16;72.82;99123.75;6044317;23;20484;-92
2022/12/17 13:33:25;;;;;;;31.00;12.47;;;;;;;15.01;73.53;99115.13;6069295;23;20149;-90
2022/12/17 13:36:19;;;;;;;23.40;11.00;;;;;;;14.68;74.36;99123.59;6069234;23;20155;-92
2022/12/17 13:39:08;;;;;;;30.17;13.60;;;;;;;14.76;74.29;99120.44;6044252;23;20162;-90
2022/12/17 13:41:34;;;;;;;31.37;13.73;;;;;;;14.54;75.52;99126.34;6069179;23;20161;-90
2022/12/17 13:44:36;;;;;;;32.77;14.33;;;;;;;14.55;75.15;99132.47;6043734;23;20205;-90
2022/12/17 13:47:25;;;;;;;34.33;14.87;;;;;;;14.59;75.01;99133.94;6069522;23;20138;-90
2022/12/17 13:50:05;;;;;;;42.20;15.90;;;;;;;14.15;76.54;99126.38;6045092;23;20168;-89
2022/12/17 13:52:33;;;;;;;31.00;14.63;;;;;;;14.37;75.63;99123.16;6069992;23;20130;-89
2022/12/17 13:55:19;;;;;;;31.60;14.80;;;;;;;14.49;75.30;99127.63;6069188;23;20149;-90
2022/12/17 13:57:49;;;;;;;34.40;13.90;;;;;;;14.71;73.98;99117.25;6044218;23;20146;-90
2022/12/17 14:00:31;;;;;;;29.10;13.90;;;;;;;14.79;73.72;99112.28;6069018;23;20166;-90
2022/12/17 14:03:07;;;;;;;31.37;14.20;;;;;;;14.88;73.49;99109.03;6067591;23;20618;-90
2022/12/17 14:05:42;;;;;;;34.60;14.67;;;;;;;15.12;72.95;99107.25;6044018;23;20228;-90
2022/12/17 14:08:18;;;;;;;30.53;15.23;;;;;;;15.20;72.50;99110.19;6069670;23;20158;-90
2022/12/17 14:14:08;;;;;;;;;;;;;;;;;;;;;
2022/12/17 14:17:07;;;;;;;40.57;17.73;;;;;;;15.43;70.83;99131.47;6068887;23;20238;-91
2022/12/17 14:19:48;;;;;;;;;;;;;;;;;;;;;
2022/12/17 14:22:42;;;;;;;;;;;;;;;;;;;;;
2022/12/17 14:25:29;;;;;;;25.70;11.57;;;;;;;14.87;71.72;99120.53;6069536;23;20227;-90
2022/12/17 14:27:56;;;;;;;23.03;11.17;;;;;;;14.70;72.27;99115.59;6068779;23;20159;-90
2022/12/17 14:31:04;;;;;;;29.37;11.77;;;;;;;14.43;73.48;99128.03;6043506;23;20566;-90
2022/12/17 14:33:45;;;;;;;;;;;;;;;;;;;;;
2022/12/17 14:36:22;;;;;;;27.63;12.13;;;;;;;14.39;73.91;99150.28;6069362;23;20214;-89
2022/12/17 14:39:19;;;;;;;25.00;11.17;;;;;;;14.41;73.87;99141.31;6043875;23;20465;-90
2022/12/17 14:45:06;;;;;;;31.00;11.03;;;;;;;14.50;73.04;99081.81;6035116;23;20232;-90
2022/12/17 14:47:36;;;;;;;28.27;13.07;;;;;;;14.65;72.75;99122.97;6043455;23;20554;-90
2022/12/17 14:50:11;;;;;;;30.33;13.43;;;;;;;14.58;72.81;99164.75;6067460;23;20565;-90
2022/12/17 14:52:40;;;;;;;29.93;13.27;;;;;;;14.32;73.68;99156.91;6043595;23;20158;-90
2022/12/17 14:55:29;;;;;;;35.40;14.10;;;;;;;14.35;73.96;99154.94;6068503;23;20160;-90
2022/12/17 14:58:12;;;;;;;32.80;12.90;;;;;;;14.42;73.90;99173.81;6069439;23;20146;-89
2022/12/17 15:00:42;;;;;;;24.97;12.67;;;;;;;14.52;73.63;99151.13;6040501;23;20286;-90
2022/12/17 15:03:19;;;;;;;26.60;12.77;;;;;;;14.64;72.92;99172.25;6015240;23;20187;-90
2022/12/17 15:08:54;;;;;;;25.23;10.67;;;;;;;14.80;72.21;99163.28;6041540;23;20165;-93
2022/12/17 15:11:21;;;;;;;23.93;9.73;;;;;;;14.85;72.11;99183.13;6015941;23;20171;-94
2022/12/17 15:13:51;;;;;;;26.47;12.43;;;;;;;14.97;71.58;99184.06;6016230;23;20174;-94
2022/12/17 15:16:57;;;;;;;25.93;11.80;;;;;;;14.88;71.85;99193.47;6016552;23;20549;-95
2022/12/17 15:26:49;;;;;;;28.17;12.53;;;;;;;15.04;70.60;99182.69;6040486;23;20156;-94
2022/12/17 15:29:40;;;;;;;63.90;14.27;;;;;;;15.09;70.11;99170.88;6015333;23;20158;-93
2022/12/17 15:32:26;;;;;;;26.57;11.97;;;;;;;14.89;70.68;99171.41;6037953;23;20164;-94
2022/12/17 15:35:10;;;;;;;23.03;11.33;;;;;;;14.87;70.99;99186.50;6015921;23;20646;-95
2022/12/17 15:38:00;;;;;;;27.37;11.83;;;;;;;14.83;71.13;99208.78;6040241;23;20623;-94
2022/12/17 15:43:09;;;;;;;30.07;12.30;;;;;;;14.76;71.82;99223.34;6037928;23;20168;-94
2022/12/17 15:43:54;;;;;;;26.17;12.73;;;;;;;14.63;72.18;99209.28;6039772;23;20184;-94
2022/12/17 15:49:42;;;;;;;;;;;;;;;;;;;;;
2022/12/17 15:52:51;;;;;;;22.03;11.03;;;;;;;14.80;71.42;99200.22;6034067;23;20243;-93
2022/12/17 15:59:38;;;;;;;27.43;12.37;;;;;;;14.66;71.86;99240.75;5931273;24;20194;-94
2022/12/17 16:05:56;;;;;;;;;;;;;;;;;;;;;
2022/12/17 16:12:02;;;;;;;34.93;14.23;;;;;;;14.82;71.91;99267.78;6029580;23;20236;-94
2022/12/17 16:18:26;;;;;;;26.33;12.33;;;;;;;14.33;73.60;99298.38;6070841;23;20153;-94
2022/12/17 16:21:55;;;;;;;28.90;13.13;;;;;;;14.21;74.86;99312.28;6070609;23;20532;-93
2022/12/17 16:24:39;;;;;;;;;;;;;;;;;;;;;
2022/12/17 16:27:08;;;;;;;32.30;14.50;;;;;;;13.90;76.78;99356.44;6070864;23;20220;-92
2022/12/17 16:29:36;;;;;;;33.70;14.53;;;;;;;13.71;78.45;99352.38;6070927;23;20192;-94
2022/12/17 16:32:17;;;;;;;27.23;11.57;;;;;;;13.53;79.72;99351.75;6044897;23;20175;-93
2022/12/17 16:35:05;;;;;;;25.80;11.20;;;;;;;13.59;80.40;99351.38;6044506;23;20161;-93
2022/12/17 16:37:52;;;;;;;22.20;11.73;;;;;;;13.70;79.80;99348.94;6067418;23;20578;-93
2022/12/17 16:40:49;;;;;;;25.80;11.67;;;;;;;13.75;79.58;99360.03;6045277;23;20161;-95
2022/12/17 16:43:20;;;;;;;19.63;10.47;;;;;;;13.76;79.30;99358.22;6045805;23;20192;-93
2022/12/17 16:46:25;;;;;;;29.37;12.70;;;;;;;13.89;78.85;99356.50;6070307;23;20157;-94
2022/12/17 16:49:36;;;;;;;;;;;;;;;;;;;;;
2022/12/17 16:52:40;;;;;;;26.13;11.13;;;;;;;14.27;77.50;99354.09;6070772;23;20605;-94
2022/12/17 16:55:50;;;;;;;30.23;11.20;;;;;;;14.51;76.08;99328.81;6044589;23;20156;-94
2022/12/17 16:59:25;;;;;;;;;;;;;;;;;;;;;
2022/12/17 17:01:56;;;;;;;21.73;10.97;;;;;;;14.72;75.31;99264.09;6066932;23;20277;-89
2022/12/17 17:04:29;;;;;;;27.97;11.87;;;;;;;14.84;74.77;99280.84;6070423;23;20185;-89
2022/12/17 17:07:00;;;;;;;24.90;11.43;;;;;;;14.77;74.67;99269.88;6070628;23;20547;-90
2022/12/17 17:09:46;;;;;;;27.23;11.33;;;;;;;14.80;74.06;99253.00;6045162;23;20305;-90
2022/12/17 17:12:15;;;;;;;25.97;11.73;;;;;;;14.59;74.55;99223.63;6044494;23;20160;-89
2022/12/17 17:14:46;;;;;;;30.47;11.13;;;;;;;14.34;75.90;99224.44;6044358;23;20171;-89
2022/12/17 17:17:11;;;;;;;22.60;10.80;;;;;;;14.43;75.39;99234.38;6069788;23;20150;-89
2022/12/17 17:19:39;;;;;;;21.47;11.40;;;;;;;14.50;75.33;99255.91;6043700;23;20164;-89
2022/12/17 17:22:05;;;;;;;39.83;16.70;;;;;;;14.37;75.68;99276.13;6069516;23;20160;-89
2022/12/17 17:24:33;;;;;;;37.87;16.40;;;;;;;14.41;75.49;99288.16;6069795;23;20156;-88
2022/12/17 17:26:59;;;;;;;37.70;17.33;;;;;;;14.62;75.02;99313.97;6069467;23;20150;-89
2022/12/17 17:29:27;;;;;;;32.57;16.80;;;;;;;14.68;74.24;99308.28;6044383;23;20239;-90
2022/12/17 17:31:58;;;;;;;38.30;18.20;;;;;;;14.67;74.11;99305.75;6044240;23;20300;-90
2022/12/17 17:34:24;;;;;;;35.67;17.63;;;;;;;14.72;73.72;99303.66;6044636;23;20163;-90
2022/12/17 17:36:52;;;;;;;40.37;18.37;;;;;;;14.75;73.24;99293.72;6044328;23;20160;-90
2022/12/17 17:39:20;;;;;;;40.90;19.60;;;;;;;14.80;73.08;99301.34;6044174;23;20603;-90
2022/12/17 17:41:52;;;;;;;31.90;14.97;;;;;;;14.67;72.73;99317.13;6044114;23;20167;-90
2022/12/17 17:44:20;;;;;;;26.10;12.27;;;;;;;14.43;74.24;99296.81;6044084;23;20255;-89
2022/12/17 17:46:46;;;;;;;31.57;14.70;;;;;;;14.50;74.48;99295.47;6044315;23;20499;-90
2022/12/17 17:49:29;;;;;;;35.40;14.17;;;;;;;14.55;74.02;99290.72;6068029;23;20160;-89
2022/12/17 17:52:19;;;;;;;34.47;15.40;;;;;;;14.58;74.08;99293.16;6029844;23;20178;-89
2022/12/17 17:55:05;;;;;;;30.33;15.63;;;;;;;14.74;73.41;99299.13;6044707;23;20155;-91
2022/12/17 18:03:56;;;;;;;;;;;;;;;;;;;;;
2022/12/17 18:06:52;;;;;;;42.13;19.03;;;;;;;14.27;75.53;99301.38;6069689;23;20218;-89
2022/12/17 18:16:34;;;;;;;34.63;14.27;;;;;;;14.56;74.19;99334.63;6058572;23;20174;-90
2022/12/17 18:19:30;;;;;;;34.83;15.47;;;;;;;14.66;73.39;99335.72;6012514;23;20158;-90
2022/12/17 18:22:27;;;;;;;29.17;13.60;;;;;;;14.55;73.67;99331.16;6042207;23;20161;-90
2022/12/17 18:39:50;;;;;;;43.13;16.50;;;;;;;14.47;72.21;99345.78;5963470;24;20175;-90
2022/12/17 18:46:27;;;;;;;;;;;;;;;;;;;;;
2022/12/17 18:52:53;;;;;;;43.17;19.43;;;;;;;14.04;75.59;99366.13;6068822;23;20489;-89
2022/12/17 18:55:39;;;;;;;40.53;20.00;;;;;;;14.15;75.28;99367.09;6044050;23;20251;-89
2022/12/17 18:58:26;;;;;;;43.00;18.60;;;;;;;14.30;74.96;99369.72;6069146;23;20141;-90
2022/12/17 19:01:03;;;;;;;35.70;17.07;;;;;;;14.41;73.91;99373.38;6043867;23;20296;-90
2022/12/17 19:03:28;;;;;;;41.50;18.30;;;;;;;14.37;73.61;99392.16;6043579;23;20179;-90
2022/12/17 19:06:04;;;;;;;35.27;17.87;;;;;;;14.38;73.38;99393.84;6043386;23;20153;-90
2022/12/17 19:08:33;;;;;;;36.13;17.07;;;;;;;14.37;73.78;99400.06;6043600;23;20160;-90
2022/12/17 19:11:19;;;;;;;38.07;19.33;;;;;;;14.45;73.23;99400.41;6043313;23;20491;-90
2022/12/17 19:13:51;;;;;;;35.80;15.97;;;;;;;14.51;72.94;99389.47;6068587;23;20138;-90
2022/12/17 19:16:25;;;;;;;40.93;18.00;;;;;;;14.51;72.66;99386.84;6043233;23;20228;-90
2022/12/17 19:19:05;;;;;;;37.87;17.03;;;;;;;14.51;72.87;99387.69;6043285;23;20150;-90
2022/12/17 19:21:32;;;;;;;41.43;18.10;;;;;;;14.44;73.61;99369.72;6069023;23;20148;-90
2022/12/17 19:24:10;;;;;;;37.80;16.70;;;;;;;14.32;74.72;99365.22;6067162;23;20185;-90
2022/12/17 19:26:42;;;;;;;31.30;14.60;;;;;;;14.43;74.15;99370.66;6068347;23;20150;-90
2022/12/17 19:29:31;;;;;;;36.17;16.47;;;;;;;14.52;73.44;99373.53;6068719;23;20142;-91
2022/12/17 19:31:56;;;;;;;32.57;14.87;;;;;;;14.39;73.99;99375.28;6043101;23;20240;-90
2022/12/17 19:34:25;;;;;;;72.33;24.97;;;;;;;14.34;74.63;99373.88;6043215;23;20558;-89
2022/12/17 19:36:53;;;;;;;49.53;20.37;;;;;;;14.22;75.00;99374.63;6068666;23;20216;-90
2022/12/17 19:42:46;;;;;;;39.03;16.63;;;;;;;14.26;75.17;99399.84;6064810;23;20146;-90
2022/12/17 19:45:14;;;;;;;33.57;15.07;;;;;;;14.36;75.10;99390.47;6040522;23;20169;-90
2022/12/17 19:47:48;;;;;;;35.73;15.47;;;;;;;14.48;73.69;99390.53;6066561;23;20150;-90
2022/12/17 19:51:06;;;;;;;;;;;;;;;;;;;;;
2022/12/17 19:53:48;;;;;;;30.33;14.67;;;;;;;14.44;73.43;99389.00;6067323;23;20237;-90
2022/12/17 19:56:28;;;;;;;35.77;18.33;;;;;;;14.47;73.33;99388.81;6067386;23;20141;-89
2022/12/17 19:59:02;;;;;;;36.10;16.17;;;;;;;14.56;73.00;99382.97;6042318;23;20249;-90
2022/12/17 20:01:44;;;;;;;35.20;16.50;;;;;;;14.47;72.86;99387.97;6042921;23;20184;-90
2022/12/17 20:04:25;;;;;;;35.90;15.87;;;;;;;14.41;72.92;99396.28;6067221;23;20182;-90
2022/12/17 20:07:03;;;;;;;;;;;;;;;;;;;;;
2022/12/17 20:09:34;;;;;;;33.63;14.63;;;;;;;14.17;73.39;99385.47;6067662;23;20233;-90
2022/12/17 20:12:12;;;;;;;39.47;15.50;;;;;;;14.30;73.50;99385.56;6042542;23;20159;-90
2022/12/17 20:14:59;;;;;;;36.80;14.80;;;;;;;14.21;73.75;99392.25;6042301;23;20161;-90
2022/12/17 20:17:27;;;;;;;30.67;13.43;;;;;;;14.26;73.91;99398.06;6067497;23;20168;-91
2022/12/17 20:20:05;;;;;;;36.40;15.23;;;;;;;14.28;74.01;99400.63;6042371;23;20607;-91
2022/12/17 20:22:46;;;;;;;33.97;15.60;;;;;;;14.29;73.86;99395.25;6067060;23;20174;-91
2022/12/17 20:25:14;;;;;;;35.93;16.53;;;;;;;14.37;73.74;99413.25;6042813;23;20149;-90
2022/12/17 20:27:52;;;;;;;37.17;15.70;;;;;;;14.34;74.29;99413.44;6042094;23;20155;-91
2022/12/17 20:30:17;;;;;;;33.33;15.23;;;;;;;14.29;74.92;99418.97;6042557;23;20463;-90
2022/12/17 20:32:46;;;;;;;33.43;15.77;;;;;;;14.34;74.87;99416.06;6042389;23;20202;-90
2022/12/17 20:35:24;;;;;;;30.30;15.13;;;;;;;14.25;75.23;99432.47;6067446;23;20159;-90
2022/12/17 20:37:58;;;;;;;34.23;15.80;;;;;;;14.23;76.04;99444.91;6067659;23;20147;-90
2022/12/17 20:40:24;;;;;;;29.67;15.33;;;;;;;14.35;75.96;99458.19;6041965;23;20154;-89
2022/12/17 20:42:59;;;;;;;31.33;14.67;;;;;;;14.37;75.74;99472.13;6066948;23;20907;-90
2022/12/17 20:45:27;;;;;;;33.43;15.73;;;;;;;14.49;75.15;99466.06;6042357;23;20212;-90
2022/12/17 20:47:54;;;;;;;33.50;15.03;;;;;;;14.58;74.51;99459.34;6042326;23;20185;-90
2022/12/17 20:50:20;;;;;;;34.57;16.03;;;;;;;14.58;74.64;99460.22;6042633;23;20161;-90
2022/12/17 20:52:57;;;;;;;34.83;15.90;;;;;;;14.66;74.71;99467.63;6042151;23;20243;-90
2022/12/17 20:55:49;;;;;;;31.33;14.83;;;;;;;14.58;75.24;99470.75;6044295;23;20156;-94
2022/12/17 20:59:03;;;;;;;;;;;;;;;;;;;;;
2022/12/17 21:01:58;;;;;;;20.30;9.43;;;;;;;14.66;74.70;99467.63;6069293;23;20299;-94
2022/12/17 21:04:34;;;;;;;19.83;9.20;;;;;;;14.51;76.37;99465.97;6030012;23;20197;-94
2022/12/17 21:07:05;;;;;;;21.77;9.47;;;;;;;14.40;76.93;99466.66;6044910;23;20162;-94
2022/12/17 21:09:40;;;;;;;20.73;8.77;;;;;;;14.16;77.83;99461.09;6044816;23;20150;-94
2022/12/17 21:12:18;;;;;;;;;;;;;;;;;;;;;
2022/12/17 21:14:54;;;;;;;19.17;8.57;;;;;;;13.83;81.38;99452.63;6070876;23;20237;-94
2022/12/17 21:17:26;;;;;;;21.17;9.57;;;;;;;13.79;82.49;99453.72;6044811;23;20175;-94
2022/12/17 21:19:51;;;;;;;21.07;10.23;;;;;;;13.66;83.35;99459.81;6044225;23;20163;-91
2022/12/17 21:22:17;;;;;;;18.10;8.90;;;;;;;13.79;82.72;99459.00;6044824;23;20232;-94
2022/12/17 21:24:42;;;;;;;21.93;10.57;;;;;;;14.07;81.75;99463.44;6044991;23;20168;-94
2022/12/17 21:27:08;;;;;;;23.07;9.60;;;;;;;14.23;81.02;99464.16;6044770;23;20176;-93
2022/12/17 21:29:33;;;;;;;20.83;10.43;;;;;;;14.34;80.58;99477.56;6045350;23;20161;-94
2022/12/17 21:31:59;;;;;;;26.53;11.60;;;;;;;14.46;80.02;99470.69;6044664;23;20189;-94
2022/12/17 21:34:27;;;;;;;29.77;12.77;;;;;;;14.64;79.40;99465.09;6045049;23;20154;-94
2022/12/17 21:36:53;;;;;;;26.60;11.20;;;;;;;14.74;78.93;99473.28;6045298;23;20221;-93
2022/12/17 21:39:19;;;;;;;24.73;10.53;;;;;;;14.67;78.38;99475.44;6045165;23;20164;-93
2022/12/17 21:43:00;;;;;;;68.27;22.03;;;;;;;14.67;78.04;99466.69;6045443;23;20158;-94
2022/12/17 21:44:31;;;;;;;33.60;13.60;;;;;;;14.76;77.68;99468.72;6067584;23;20195;-93
2022/12/17 21:46:56;;;;;;;25.27;12.33;;;;;;;14.62;76.76;99487.25;6044608;23;20155;-94
2022/12/17 21:49:22;;;;;;;25.00;11.50;;;;;;;14.43;77.00;99498.13;6044641;23;20224;-93
2022/12/17 21:51:47;;;;;;;26.83;12.37;;;;;;;14.48;77.08;99485.50;6044627;23;20163;-93
2022/12/17 21:54:15;;;;;;;24.40;11.83;;;;;;;14.56;76.38;99487.63;6044627;23;20165;-95
2022/12/17 21:56:41;;;;;;;25.00;11.10;;;;;;;14.54;75.91;99489.53;6044925;23;20625;-94
2022/12/17 21:59:09;;;;;;;21.47;10.80;;;;;;;14.53;75.72;99490.47;6045518;23;20198;-94
2022/12/17 22:01:35;;;;;;;105.77;36.77;;;;;;;14.54;76.05;99494.81;6044555;23;20228;-93
2022/12/17 22:04:12;;;;;;;57.03;21.73;;;;;;;14.56;75.99;99487.63;6044531;23;20194;-94
2022/12/17 22:06:58;;;;;;;29.57;12.63;;;;;;;14.64;75.41;99477.44;6044243;23;20161;-93
2022/12/17 22:09:31;;;;;;;27.47;12.10;;;;;;;14.74;74.82;99466.22;6044922;23;20157;-94
2022/12/17 22:15:09;;;;;;;25.90;12.17;;;;;;;14.67;74.82;99471.97;6070179;23;20158;-94
2022/12/17 22:17:41;;;;;;;22.37;11.07;;;;;;;14.62;75.05;99477.53;6044549;23;20297;-94
2022/12/17 22:20:10;;;;;;;36.30;15.60;;;;;;;14.56;75.17;99469.16;6068349;23;20562;-94
2022/12/17 22:22:39;;;;;;;31.50;13.77;;;;;;;14.60;75.18;99478.56;6044429;23;20185;-94
2022/12/17 22:25:07;;;;;;;29.87;12.77;;;;;;;14.60;75.14;99502.31;6043529;23;20162;-93
2022/12/17 22:27:36;;;;;;;27.33;13.77;;;;;;;14.44;75.56;99493.69;6044681;23;20238;-94
2022/12/17 22:33:01;;;;;;;27.63;12.73;;;;;;;14.45;76.00;99464.56;6069009;23;20201;-94
2022/12/17 22:35:37;;;;;;;34.07;13.53;;;;;;;14.49;76.28;99502.16;6044183;23;20191;-93
2022/12/17 22:38:06;;;;;;;28.53;13.33;;;;;;;14.49;76.34;99502.16;6044269;23;20155;-92
2022/12/17 22:40:33;;;;;;;37.40;13.77;;;;;;;14.41;76.99;99499.16;6044306;23;20580;-93
2022/12/17 22:45:43;;;;;;;30.50;14.20;;;;;;;14.44;77.70;99515.63;6069981;23;20149;-93
2022/12/17 22:48:10;;;;;;;48.93;16.07;;;;;;;14.45;77.36;99506.78;6044087;23;20153;-94
2022/12/17 22:50:39;;;;;;;32.63;13.20;;;;;;;14.55;76.58;99515.81;6068499;23;20163;-94
2022/12/17 22:53:12;;;;;;;25.67;12.77;;;;;;;14.53;76.79;99530.88;6043932;23;20165;-95
2022/12/17 22:55:38;;;;;;;33.77;15.07;;;;;;;14.51;76.96;99529.28;6045208;23;20169;-93
2022/12/17 22:58:26;;;;;;;32.63;15.03;;;;;;;14.53;77.37;99530.03;6044307;23;20165;-95
2022/12/17 23:01:07;;;;;;;35.70;13.57;;;;;;;14.57;77.61;99531.56;6044396;23;20178;-94
2022/12/17 23:03:45;;;;;;;;;;;;;;;;;;;;;
2022/12/17 23:06:44;;;;;;;30.13;13.37;;;;;;;14.39;77.82;99554.63;6070114;23;20239;-93
2022/12/17 23:09:23;;;;;;;25.43;12.23;;;;;;;14.44;78.42;99557.81;6045441;23;20161;-94
2022/12/17 23:12:49;;;;;;;27.43;11.13;;;;;;;14.42;78.89;99553.56;6068317;23;20160;-94
2022/12/17 23:14:40;;;;;;;23.50;11.37;;;;;;;14.49;79.31;99554.91;6066775;23;20163;-94
2022/12/17 23:17:05;;;;;;;21.87;10.57;;;;;;;14.58;79.04;99560.47;6044557;23;20602;-93
2022/12/17 23:19:31;;;;;;;24.50;10.13;;;;;;;14.62;78.60;99558.50;6043900;23;20159;-94
2022/12/17 23:22:06;;;;;;;27.67;11.30;;;;;;;14.66;78.64;99567.91;6043879;23;20242;-94
2022/12/17 23:24:41;;;;;;;20.77;10.57;;;;;;;14.67;78.47;99575.69;6043635;23;20189;-94
2022/12/17 23:27:16;;;;;;;23.17;11.30;;;;;;;14.69;78.42;99578.25;6068773;23;20152;-94
2022/12/17 23:30:01;;;;;;;;;;;;;;;;;;;;;
2022/12/17 23:32:27;;;;;;;26.63;10.90;;;;;;;14.74;78.05;99607.84;6068890;23;20231;-93
2022/12/17 23:34:54;;;;;;;26.73;11.67;;;;;;;14.73;78.40;99606.16;6044585;23;20567;-93
2022/12/17 23:37:25;;;;;;;21.40;10.43;;;;;;;14.80;78.11;99598.72;6043703;23;20235;-93
2022/12/17 23:39:51;;;;;;;27.03;11.37;;;;;;;14.89;78.15;99595.47;6044082;23;20153;-93
2022/12/17 23:42:21;;;;;;;24.10;11.33;;;;;;;14.96;77.74;99591.53;6067925;23;20242;-94
2022/12/17 23:44:59;;;;;;;;;;;;;;;;;;;;;
2022/12/17 23:47:25;;;;;;;27.40;12.00;;;;;;;15.01;77.90;99566.53;6069500;23;20222;-94
2022/12/17 23:50:04;;;;;;;24.50;10.73;;;;;;;14.83;78.50;99562.44;6043666;23;20189;-94
2022/12/17 23:52:31;;;;;;;23.23;10.23;;;;;;;14.65;79.40;99582.88;6044414;23;20153;-93
2022/12/17 23:54:57;;;;;;;25.33;10.67;;;;;;;14.70;79.80;99593.16;6043389;23;20168;-92
2022/12/17 23:57:22;;;;;;;29.57;11.47;;;;;;;14.65;79.44;99592.56;6043790;23;20187;-93
2022/12/17 23:59:48;;;;;;;25.20;11.53;;;;;;;14.61;79.63;99593.72;6043461;23;20173;-92
